createdAt,value
2018-12-21T00:00:41.628Z,100123.03
2018-12-21T00:03:10.079Z,100123.55
2018-12-21T00:05:38.568Z,100114.87
2018-12-21T00:08:07.043Z,100112.21
2018-12-21T00:10:35.611Z,100107.55
2018-12-21T00:13:04.079Z,100106.91
2018-12-21T00:15:32.591Z,100104.06
2018-12-21T00:18:01.199Z,100102.59
2018-12-21T00:20:29.673Z,100104.09
2018-12-21T00:22:58.185Z,100098.98
2018-12-21T00:25:26.668Z,100092.45
2018-12-21T00:27:55.204Z,100095.57
2018-12-21T00:30:22.949Z,100088.91
2018-12-21T00:32:57.187Z,100086.92
2018-12-21T00:35:30.837Z,100086.74
2018-12-21T00:38:05.670Z,100077.55
2018-12-21T00:40:39.668Z,100078.86
2018-12-21T00:43:18.229Z,100073.95
2018-12-21T00:45:50.076Z,100072.44
2018-12-21T00:48:18.568Z,100074.24
2018-12-21T00:50:47.068Z,100070.67
2018-12-21T00:53:15.572Z,100074.73
2018-12-21T00:55:44.139Z,100072.25
2018-12-21T00:58:12.592Z,100069.89
2018-12-21T01:00:41.176Z,100062.64
2018-12-21T01:03:09.684Z,100057.31
2018-12-21T01:05:38.140Z,100056.34
2018-12-21T01:08:06.628Z,100061.74
2018-12-21T01:10:35.113Z,100066.73
2018-12-21T01:13:03.801Z,100063.58
2018-12-21T01:15:32.321Z,100062.60
2018-12-21T01:18:01.489Z,100046.42
2018-12-21T01:20:30.111Z,100045.15
2018-12-21T01:22:58.603Z,100035.88
2018-12-21T01:25:27.120Z,100040.49
2018-12-21T01:27:55.593Z,100035.57
2018-12-21T01:30:24.246Z,100028.03
2018-12-21T01:32:52.736Z,100023.91
2018-12-21T01:35:21.214Z,100004.91
2018-12-21T01:37:49.809Z,100013.73
2018-12-21T01:40:18.284Z,100016.09
2018-12-21T01:42:46.792Z,100018.98
2018-12-21T01:45:15.262Z,100019.73
2018-12-21T01:47:43.725Z,100028.85
2018-12-21T01:50:12.211Z,100014.09
2018-12-21T01:52:40.738Z,100024.99
2018-12-21T01:55:09.423Z,100018.20
2018-12-21T01:57:37.887Z,100007.27
2018-12-21T02:00:06.961Z,100010.42
2018-12-21T02:02:35.425Z,100003.75
2018-12-21T02:05:03.959Z,100009.56
2018-12-21T02:07:32.407Z,100001.12
2018-12-21T02:10:00.863Z,99996.88
2018-12-21T02:12:29.360Z,99989.81
2018-12-21T02:14:57.788Z,99992.03
2018-12-21T02:17:26.305Z,99987.45
2018-12-21T02:19:54.772Z,99985.61
2018-12-21T02:22:23.259Z,99983.06
2018-12-21T02:24:51.716Z,99972.74
2018-12-21T02:27:20.155Z,99973.08
2018-12-21T02:29:48.744Z,99976.23
2018-12-21T02:32:17.235Z,99971.84
2018-12-21T02:34:45.698Z,99960.66
2018-12-21T02:37:14.180Z,99965.01
2018-12-21T02:39:42.660Z,99965.23
2018-12-21T02:42:11.184Z,99957.84
2018-12-21T02:44:39.666Z,99959.34
2018-12-21T02:47:08.125Z,99952.14
2018-12-21T02:49:36.652Z,99952.41
2018-12-21T02:52:05.678Z,99952.37
2018-12-21T02:54:34.505Z,99943.81
2018-12-21T02:57:02.969Z,99942.54
2018-12-21T02:59:31.432Z,99947.00
2018-12-21T03:01:59.933Z,99952.41
2018-12-21T03:04:28.391Z,99943.22
2018-12-21T03:06:56.951Z,99945.84
2018-12-21T03:09:25.424Z,99939.23
2018-12-21T03:11:53.923Z,99932.44
2018-12-21T03:14:22.528Z,99922.63
2018-12-21T03:16:51.068Z,99922.14
2018-12-21T03:19:19.511Z,99919.30
2018-12-21T03:21:48.029Z,99915.31
2018-12-21T03:24:16.607Z,99900.72
2018-12-21T03:26:45.139Z,99890.61
2018-12-21T03:29:13.660Z,99881.86
2018-12-21T03:31:42.270Z,99874.95
2018-12-21T03:34:10.834Z,99881.23
2018-12-21T03:36:39.342Z,99875.64
2018-12-21T03:39:08.694Z,99872.57
2018-12-21T03:41:37.862Z,99871.65
2018-12-21T03:44:06.360Z,99863.63
2018-12-21T03:46:34.997Z,99852.33
2018-12-21T03:49:03.475Z,99843.92
2018-12-21T03:51:31.957Z,99831.94
2018-12-21T03:54:00.546Z,99835.25
2018-12-21T03:56:28.988Z,99823.28
2018-12-21T03:58:57.484Z,99807.71
2018-12-21T04:01:25.964Z,99806.02
2018-12-21T04:03:54.459Z,99790.93
2018-12-21T04:06:22.948Z,99789.56
2018-12-21T04:08:51.451Z,99788.06
2018-12-21T04:11:19.937Z,99784.02
2018-12-21T04:13:48.549Z,99777.94
2018-12-21T04:16:17.023Z,99779.98
2018-12-21T04:18:45.515Z,99767.67
2018-12-21T04:21:14.021Z,99765.77
2018-12-21T04:23:42.466Z,99763.63
2018-12-21T04:26:10.936Z,99761.59
2018-12-21T04:28:39.424Z,99755.11
2018-12-21T04:31:07.953Z,99748.78
2018-12-21T04:33:36.524Z,99745.63
2018-12-21T04:36:05.049Z,99746.69
2018-12-21T04:38:34.392Z,99737.26
2018-12-21T04:41:02.881Z,99732.39
2018-12-21T04:43:31.405Z,99716.63
2018-12-21T04:45:59.957Z,99702.17
2018-12-21T04:48:28.396Z,99699.25
2018-12-21T04:50:56.910Z,99693.17
2018-12-21T04:53:25.497Z,99683.35
2018-12-21T04:55:54.003Z,99678.47
2018-12-21T04:58:22.489Z,99672.78
2018-12-21T05:00:51.053Z,99666.31
2018-12-21T05:03:19.622Z,99660.50
2018-12-21T05:05:48.158Z,99651.89
2018-12-21T05:08:16.784Z,99653.17
2018-12-21T05:10:45.231Z,99647.62
2018-12-21T05:13:13.813Z,99641.05
2018-12-21T05:15:42.343Z,99637.55
2018-12-21T05:18:10.861Z,99624.11
2018-12-21T05:20:39.398Z,99618.33
2018-12-21T05:23:07.904Z,99610.38
2018-12-21T05:25:36.383Z,99611.98
2018-12-21T05:28:04.900Z,99599.89
2018-12-21T05:30:33.368Z,99598.67
2018-12-21T05:33:01.857Z,99592.62
2018-12-21T05:35:30.684Z,99580.73
2018-12-21T05:37:59.131Z,99573.34
2018-12-21T05:40:27.672Z,99574.11
2018-12-21T05:42:56.137Z,99561.44
2018-12-21T05:45:24.613Z,99544.16
2018-12-21T05:47:53.682Z,99546.36
2018-12-21T05:50:22.308Z,99544.36
2018-12-21T05:52:50.775Z,99535.85
2018-12-21T05:55:19.231Z,99524.55
2018-12-21T05:57:47.736Z,99512.13
2018-12-21T06:00:16.195Z,99499.61
2018-12-21T06:02:44.660Z,99502.53
2018-12-21T06:05:13.278Z,99507.91
2018-12-21T06:07:41.755Z,99508.20
2018-12-21T06:10:10.232Z,99494.49
2018-12-21T06:12:38.696Z,99485.88
2018-12-21T06:20:11.414Z,99484.50
2018-12-21T06:22:40.068Z,99471.69
2018-12-21T06:25:08.530Z,99471.69
2018-12-21T06:27:37.205Z,99466.42
2018-12-21T06:30:06.595Z,99471.97
2018-12-21T06:32:35.079Z,99456.41
2018-12-21T06:35:03.578Z,99448.51
2018-12-21T06:37:32.087Z,99434.47
2018-12-21T06:40:01.136Z,99428.88
2018-12-21T06:42:29.732Z,99419.80
2018-12-21T06:44:58.266Z,99417.46
2018-12-21T06:47:26.752Z,99412.81
2018-12-21T06:49:55.236Z,99402.80
2018-12-21T06:52:23.806Z,99392.38
2018-12-21T06:54:52.263Z,99396.42
2018-12-21T06:57:20.720Z,99383.28
2018-12-21T06:59:49.212Z,99383.66
2018-12-21T07:02:18.199Z,99371.67
2018-12-21T07:04:46.711Z,99358.91
2018-12-21T07:07:15.877Z,99361.03
2018-12-21T07:09:44.359Z,99356.80
2018-12-21T07:12:12.832Z,99347.81
2018-12-21T07:14:41.380Z,99346.70
2018-12-21T07:17:10.399Z,99341.73
2018-12-21T07:19:38.903Z,99335.78
2018-12-21T07:22:07.396Z,99317.27
2018-12-21T07:24:35.867Z,99318.00
2018-12-21T07:27:04.389Z,99311.84
2018-12-21T07:29:32.893Z,99307.28
2018-12-21T07:32:01.391Z,99294.75
2018-12-21T07:34:29.905Z,99287.16
2018-12-21T07:36:58.399Z,99283.63
2018-12-21T07:39:26.839Z,99287.86
2018-12-21T07:41:55.381Z,99282.71
2018-12-21T07:44:23.887Z,99279.88
2018-12-21T07:46:52.448Z,99279.59
2018-12-21T07:49:21.045Z,99271.17
2018-12-21T07:51:49.552Z,99264.80
2018-12-21T07:54:18.052Z,99259.16
2018-12-21T07:56:46.519Z,99254.89
2018-12-21T07:59:15.070Z,99248.94
2018-12-21T08:01:44.362Z,99237.53
2018-12-21T08:04:12.940Z,99226.81
2018-12-21T08:06:41.419Z,99215.48
2018-12-21T08:09:09.923Z,99191.71
2018-12-21T08:11:38.449Z,99188.17
2018-12-21T08:14:06.993Z,99177.86
2018-12-21T08:16:35.472Z,99183.73
2018-12-21T08:19:03.985Z,99181.50
2018-12-21T08:21:32.504Z,99171.41
2018-12-21T08:24:01.094Z,99173.00
2018-12-21T08:26:29.649Z,99159.78
2018-12-21T08:28:58.200Z,99161.99
2018-12-21T08:31:26.659Z,99148.14
2018-12-21T08:33:55.104Z,99152.27
2018-12-21T08:36:23.796Z,99140.05
2018-12-21T08:38:52.309Z,99132.23
2018-12-21T08:41:20.888Z,99120.41
2018-12-21T08:43:49.561Z,99112.52
2018-12-21T08:46:18.065Z,99103.42
2018-12-21T08:48:46.531Z,99097.34
2018-12-21T08:51:15.076Z,99094.22
2018-12-21T08:53:43.624Z,99081.78
2018-12-21T08:56:12.370Z,99077.95
2018-12-21T08:58:43.931Z,99073.48
2018-12-21T09:01:12.472Z,99073.47
2018-12-21T09:03:40.959Z,99074.04
2018-12-21T09:06:09.464Z,99059.25
2018-12-21T09:08:37.934Z,99054.66
2018-12-21T09:11:06.456Z,99047.33
2018-12-21T09:13:34.912Z,99034.23
2018-12-21T09:16:03.469Z,99044.23
2018-12-21T09:18:32.149Z,99034.54
2018-12-21T09:21:00.672Z,99024.07
2018-12-21T09:23:29.223Z,99021.70
2018-12-21T09:25:57.743Z,99025.14
2018-12-21T09:28:26.220Z,99016.88
2018-12-21T09:30:54.704Z,99007.67
2018-12-21T09:33:23.159Z,99008.64
2018-12-21T09:35:51.758Z,99008.14
2018-12-21T09:38:20.474Z,98989.00
2018-12-21T09:40:48.980Z,98991.78
2018-12-21T09:43:17.456Z,98991.50
2018-12-21T09:45:46.107Z,98980.13
2018-12-21T09:48:14.597Z,98965.34
2018-12-21T09:50:43.112Z,98957.59
2018-12-21T09:53:11.608Z,98962.13
2018-12-21T09:55:40.244Z,98950.13
2018-12-21T09:58:08.720Z,98945.45
2018-12-21T10:00:37.208Z,98948.52
2018-12-21T10:03:05.717Z,98943.39
2018-12-21T10:05:34.232Z,98936.06
2018-12-21T10:08:02.756Z,98932.67
2018-12-21T10:10:31.285Z,98931.52
2018-12-21T10:12:59.792Z,98921.86
2018-12-21T10:15:28.300Z,98919.67
2018-12-21T10:17:56.828Z,98916.86
2018-12-21T10:20:25.293Z,98897.85
2018-12-21T10:22:53.920Z,98890.32
2018-12-21T10:25:22.535Z,98880.06
2018-12-21T10:27:51.015Z,98880.19
2018-12-21T10:30:25.687Z,98856.91
2018-12-21T10:32:54.172Z,98861.82
2018-12-21T10:35:22.735Z,98856.65
2018-12-21T10:37:51.207Z,98853.79
2018-12-21T10:40:19.686Z,98843.25
2018-12-21T10:42:48.405Z,98840.74
2018-12-21T10:45:17.024Z,98837.65
2018-12-21T10:47:45.546Z,98825.05
2018-12-21T10:50:14.105Z,98814.91
2018-12-21T10:52:42.623Z,98824.45
2018-12-21T10:55:11.105Z,98809.48
2018-12-21T10:57:39.613Z,98806.04
2018-12-21T11:00:10.874Z,98802.79
2018-12-21T11:02:39.361Z,98793.05
2018-12-21T11:05:08.877Z,98784.64
2018-12-21T11:07:37.511Z,98785.61
2018-12-21T11:10:10.636Z,98787.44
2018-12-21T11:12:39.103Z,98787.91
2018-12-21T11:15:08.385Z,98782.91
2018-12-21T11:17:36.883Z,98776.55
2018-12-21T11:20:07.132Z,98780.69
2018-12-21T11:22:35.660Z,98769.41
2018-12-21T11:25:04.803Z,98770.26
2018-12-21T11:27:33.391Z,98773.52
2018-12-21T11:30:01.882Z,98768.46
2018-12-21T11:32:30.426Z,98760.39
2018-12-21T11:34:58.977Z,98757.05
2018-12-21T11:37:27.441Z,98753.97
2018-12-21T11:39:55.961Z,98751.61
2018-12-21T11:42:24.426Z,98747.05
2018-12-21T11:44:52.931Z,98744.98
2018-12-21T11:47:21.470Z,98750.83
2018-12-21T11:49:49.991Z,98744.34
2018-12-21T11:52:18.661Z,98746.61
2018-12-21T11:54:47.148Z,98731.52
2018-12-21T11:57:15.717Z,98739.61
2018-12-21T11:59:45.024Z,98734.46
2018-12-21T12:02:19.418Z,98730.33
2018-12-21T12:04:44.357Z,98732.59
2018-12-21T12:07:13.052Z,98730.25
2018-12-21T12:09:41.504Z,98714.53
2018-12-21T12:12:10.092Z,98718.25
2018-12-21T12:14:38.597Z,98723.36
2018-12-21T12:17:07.099Z,98724.59
2018-12-21T12:19:35.595Z,98721.80
2018-12-21T12:22:04.172Z,98723.56
2018-12-21T12:24:32.689Z,98722.57
2018-12-21T12:27:01.171Z,98718.34
2018-12-21T12:29:30.247Z,98729.75
2018-12-21T12:31:58.721Z,98722.72
2018-12-21T12:34:27.507Z,98720.34
2018-12-21T12:36:58.006Z,98723.31
2018-12-21T12:39:26.591Z,98724.63
2018-12-21T12:41:55.082Z,98730.22
2018-12-21T12:44:23.586Z,98724.17
2018-12-21T12:46:52.056Z,98737.48
2018-12-21T12:49:20.572Z,98738.34
2018-12-21T12:51:49.094Z,98731.52
2018-12-21T12:54:17.573Z,98741.06
2018-12-21T12:56:46.025Z,98744.27
2018-12-21T12:59:14.481Z,98740.93
2018-12-21T13:01:43.147Z,98742.25
2018-12-21T13:04:11.639Z,98734.59
2018-12-21T13:06:40.132Z,98732.84
2018-12-21T13:09:08.668Z,98737.13
2018-12-21T13:11:38.131Z,98733.91
2018-12-21T13:14:06.644Z,98744.25
2018-12-21T13:16:35.267Z,98746.14
2018-12-21T13:19:03.772Z,98746.65
2018-12-21T13:21:32.271Z,98742.17
2018-12-21T13:24:00.912Z,98745.08
2018-12-21T13:26:29.364Z,98751.45
2018-12-21T13:28:57.911Z,98752.50
2018-12-21T13:31:26.589Z,98748.78
2018-12-21T13:33:55.136Z,98754.58
2018-12-21T13:36:23.657Z,98758.55
2018-12-21T13:38:52.156Z,98756.20
2018-12-21T13:41:20.647Z,98759.60
2018-12-21T13:43:49.171Z,98765.97
2018-12-21T13:46:17.728Z,98758.55
2018-12-21T13:48:46.308Z,98767.53
2018-12-21T13:51:14.851Z,98773.09
2018-12-21T13:53:43.370Z,98774.66
2018-12-21T13:56:12.039Z,98770.95
2018-12-21T13:58:40.504Z,98773.58
2018-12-21T14:01:08.966Z,98779.11
2018-12-21T14:03:37.478Z,98785.42
2018-12-21T14:06:05.928Z,98793.33
2018-12-21T14:08:34.490Z,98796.78
2018-12-21T14:11:03.006Z,98801.44
2018-12-21T14:13:31.533Z,98809.38
2018-12-21T14:16:00.173Z,98806.16
2018-12-21T14:18:29.576Z,98817.21
2018-12-21T14:20:58.071Z,98811.69
2018-12-21T14:23:26.641Z,98815.05
2018-12-21T14:25:55.186Z,98823.80
2018-12-21T14:28:23.706Z,98831.97
2018-12-21T14:30:52.922Z,98839.36
2018-12-21T14:33:21.536Z,98841.97
2018-12-21T14:35:50.113Z,98835.60
2018-12-21T14:38:18.658Z,98846.17
2018-12-21T14:40:47.219Z,98843.44
2018-12-21T14:43:15.918Z,98842.90
2018-12-21T14:45:44.633Z,98862.12
2018-12-21T14:48:13.179Z,98867.06
2018-12-21T14:50:42.372Z,98868.87
2018-12-21T14:53:10.873Z,98878.56
2018-12-21T14:55:39.580Z,98880.93
2018-12-21T14:58:08.455Z,98885.64
2018-12-21T15:00:37.013Z,98890.34
2018-12-21T15:03:06.450Z,98892.48
2018-12-21T15:05:35.070Z,98889.80
2018-12-21T15:08:03.621Z,98904.78
2018-12-21T15:10:32.144Z,98908.41
2018-12-21T15:13:00.631Z,98906.00
2018-12-21T15:15:29.200Z,98913.04
2018-12-21T15:17:57.758Z,98917.20
2018-12-21T15:20:26.289Z,98929.33
2018-12-21T15:22:54.756Z,98915.11
2018-12-21T15:25:23.359Z,98936.23
2018-12-21T15:27:51.916Z,98937.14
2018-12-21T15:30:20.907Z,98931.72
2018-12-21T15:32:49.344Z,98932.92
2018-12-21T15:35:17.895Z,98954.09
2018-12-21T15:37:46.368Z,98951.27
2018-12-21T15:40:14.940Z,98948.28
2018-12-21T15:42:43.439Z,98956.39
2018-12-21T15:45:11.954Z,98957.28
2018-12-21T15:47:40.407Z,98975.99
2018-12-21T15:50:11.567Z,98971.98
2018-12-21T15:52:41.396Z,98967.14
2018-12-21T15:55:09.947Z,98975.52
2018-12-21T15:57:39.607Z,98990.95
2018-12-21T16:00:11.455Z,98993.36
2018-12-21T16:02:41.155Z,99002.87
2018-12-21T16:05:09.635Z,98997.75
2018-12-21T16:07:38.156Z,99019.63
2018-12-21T16:10:08.278Z,98981.88
2018-12-21T16:12:36.819Z,99003.68
2018-12-21T16:15:05.679Z,99029.43
2018-12-21T16:17:34.187Z,99029.22
2018-12-21T16:20:03.238Z,99028.81
2018-12-21T16:22:31.723Z,99012.40
2018-12-21T16:25:00.223Z,99033.17
2018-12-21T16:27:30.669Z,99029.91
2018-12-21T16:30:00.023Z,99030.36
2018-12-21T16:32:28.945Z,99035.55
2018-12-21T16:34:57.574Z,99029.27
2018-12-21T16:37:26.148Z,99040.19
2018-12-21T16:39:54.585Z,99051.19
2018-12-21T16:42:23.032Z,99048.64
2018-12-21T16:44:51.533Z,99060.50
2018-12-21T16:47:20.065Z,99054.78
2018-12-21T16:49:48.549Z,99063.64
2018-12-21T16:52:17.039Z,99071.72
2018-12-21T16:54:45.773Z,99067.17
2018-12-21T16:57:14.211Z,99067.90
2018-12-21T16:59:42.797Z,99075.29
2018-12-21T17:02:12.161Z,99092.42
2018-12-21T17:04:40.622Z,99094.74
2018-12-21T17:07:09.166Z,99089.33
2018-12-21T17:09:37.696Z,99079.95
2018-12-21T17:12:06.199Z,99094.89
2018-12-21T17:14:34.781Z,99096.42
2018-12-21T17:17:05.051Z,99097.09
2018-12-21T17:19:33.780Z,99100.66
2018-12-21T17:22:02.452Z,99102.98
2018-12-21T17:24:37.702Z,99115.75
2018-12-21T17:27:06.205Z,99115.66
2018-12-21T17:29:34.720Z,99113.30
2018-12-21T17:32:03.313Z,99120.64
2018-12-21T17:34:31.965Z,99123.84
2018-12-21T17:37:00.452Z,99122.38
2018-12-21T17:39:28.925Z,99126.86
2018-12-21T17:42:04.025Z,99137.55
2018-12-21T17:44:32.550Z,99131.56
2018-12-21T17:47:01.017Z,99139.81
2018-12-21T17:49:29.524Z,99140.25
2018-12-21T17:52:01.539Z,99134.26
2018-12-21T17:54:28.738Z,99132.72
2018-12-21T17:56:57.329Z,99141.81
2018-12-21T17:59:25.838Z,99134.91
2018-12-21T18:01:54.665Z,99138.67
2018-12-21T18:04:27.592Z,99150.81
2018-12-21T18:06:56.192Z,99153.52
2018-12-21T18:09:26.692Z,99158.38
2018-12-21T18:11:57.269Z,99170.52
2018-12-21T18:14:25.819Z,99176.88
2018-12-21T18:16:54.285Z,99179.39
2018-12-21T18:19:22.897Z,99185.89
2018-12-21T18:21:56.707Z,99196.37
2018-12-21T18:24:26.325Z,99197.69
2018-12-21T18:26:54.803Z,99210.55
2018-12-21T18:29:24.013Z,99216.03
2018-12-21T18:31:59.525Z,99224.48
2018-12-21T18:34:34.788Z,99232.72
2018-12-21T18:37:05.440Z,99246.71
2018-12-21T18:39:33.934Z,99265.32
2018-12-21T18:42:02.513Z,99244.86
2018-12-21T18:44:31.161Z,99263.73
2018-12-21T18:46:59.611Z,99265.77
2018-12-21T18:49:28.959Z,99280.48
2018-12-21T18:51:59.775Z,99285.58
2018-12-21T18:54:29.112Z,99302.42
2018-12-21T18:57:16.050Z,99304.67
2018-12-21T18:59:44.563Z,99309.23
2018-12-21T19:02:13.229Z,99314.29
2018-12-21T19:04:41.719Z,99313.91
2018-12-21T19:07:10.388Z,99310.91
2018-12-21T19:09:40.934Z,99326.50
2018-12-21T19:12:09.541Z,99335.79
2018-12-21T19:14:38.271Z,99344.13
2018-12-21T19:17:06.933Z,99350.49
2018-12-21T19:19:35.504Z,99330.23
2018-12-21T19:22:03.983Z,99354.95
2018-12-21T19:24:32.731Z,99360.95
2018-12-21T19:27:01.208Z,99364.91
2018-12-21T19:29:30.173Z,99364.30
2018-12-21T19:31:59.300Z,99369.78
2018-12-21T19:34:28.006Z,99377.37
2018-12-21T19:36:56.539Z,99388.04
2018-12-21T19:39:25.082Z,99379.11
2018-12-21T19:41:53.654Z,99387.93
2018-12-21T19:44:22.149Z,99392.91
2018-12-21T19:46:50.617Z,99398.97
2018-12-21T19:49:19.297Z,99409.92
2018-12-21T19:51:47.895Z,99406.60
2018-12-21T19:54:19.416Z,99420.27
2018-12-21T19:56:53.036Z,99423.53
2018-12-21T19:59:22.034Z,99438.22
2018-12-21T20:01:50.796Z,99428.69
2018-12-21T20:04:19.609Z,99439.92
2018-12-21T20:06:48.064Z,99430.50
2018-12-21T20:09:16.549Z,99440.86
2018-12-21T20:11:45.089Z,99443.48
2018-12-21T20:14:13.665Z,99447.61
2018-12-21T20:16:42.364Z,99455.72
2018-12-21T20:19:10.885Z,99462.72
2018-12-21T20:21:40.200Z,99476.11
2018-12-21T20:24:08.849Z,99476.62
2018-12-21T20:26:37.519Z,99486.12
2018-12-21T20:29:06.090Z,99503.03
2018-12-21T20:31:35.249Z,99502.74
2018-12-21T20:34:03.840Z,99510.93
2018-12-21T20:36:32.370Z,99526.11
2018-12-21T20:39:00.980Z,99519.53
2018-12-21T20:41:29.624Z,99515.55
2018-12-21T20:43:58.165Z,99528.17
2018-12-21T20:46:27.524Z,99525.66
2018-12-21T20:48:56.300Z,99540.81
2018-12-21T20:51:25.012Z,99546.77
2018-12-21T20:53:54.164Z,99554.88
2018-12-21T20:56:22.721Z,99556.06
2018-12-21T20:58:56.285Z,99557.17
2018-12-21T21:01:25.179Z,99566.86
2018-12-21T21:03:53.690Z,99563.32
2018-12-21T21:06:22.192Z,99571.91
2018-12-21T21:08:50.745Z,99572.31
2018-12-21T21:11:24.328Z,99571.48
2018-12-21T21:13:50.285Z,99579.77
2018-12-21T21:16:18.928Z,99579.16
2018-12-21T21:18:47.428Z,99592.70
2018-12-21T21:21:16.088Z,99595.83
2018-12-21T21:23:44.585Z,99602.01
2018-12-21T21:26:13.076Z,99607.56
2018-12-21T21:28:41.743Z,99607.27
2018-12-21T21:31:10.211Z,99606.94
2018-12-21T21:33:38.713Z,99617.78
2018-12-21T21:36:07.350Z,99621.80
2018-12-21T21:38:35.877Z,99630.87
2018-12-21T21:41:04.527Z,99630.08
2018-12-21T21:43:32.996Z,99641.38
2018-12-21T21:46:01.501Z,99637.63
2018-12-21T21:48:30.165Z,99646.94
2018-12-21T21:50:58.736Z,99640.81
2018-12-21T21:53:27.190Z,99645.23
2018-12-21T21:55:55.730Z,99649.25
2018-12-21T21:58:24.314Z,99661.84
2018-12-21T22:00:53.013Z,99662.31
2018-12-21T22:03:21.511Z,99669.27
2018-12-21T22:05:50.048Z,99674.20
2018-12-21T22:08:18.554Z,99680.77
2018-12-21T22:10:47.015Z,99684.72
2018-12-21T22:13:15.511Z,99681.47
2018-12-21T22:15:44.032Z,99689.05
2018-12-21T22:18:12.747Z,99702.69
2018-12-21T22:20:41.241Z,99710.38
2018-12-21T22:23:09.711Z,99706.44
2018-12-21T22:25:38.351Z,99717.57
2018-12-21T22:28:06.825Z,99720.53
2018-12-21T22:30:35.376Z,99725.95
2018-12-21T22:33:03.857Z,99732.95
2018-12-21T22:35:32.337Z,99733.28
2018-12-21T22:38:00.981Z,99734.59
2018-12-21T22:40:29.473Z,99738.05
2018-12-21T22:42:57.979Z,99738.34
2018-12-21T22:45:26.459Z,99740.48
2018-12-21T22:47:55.037Z,99744.33
2018-12-21T22:50:23.561Z,99736.53
2018-12-21T22:52:52.040Z,99745.97
2018-12-21T22:55:20.508Z,99744.52
2018-12-21T22:57:56.288Z,99756.25
2018-12-21T23:00:28.248Z,99753.86
2018-12-21T23:02:56.796Z,99763.41
2018-12-21T23:05:25.313Z,99757.86
2018-12-21T23:07:53.792Z,99752.64
2018-12-21T23:10:22.330Z,99761.74
2018-12-21T23:12:50.832Z,99770.16
2018-12-21T23:15:20.093Z,99770.30
2018-12-21T23:17:48.590Z,99763.29
2018-12-21T23:20:17.090Z,99762.04
2018-12-21T23:22:45.536Z,99766.41
2018-12-21T23:25:14.229Z,99761.55
2018-12-21T23:27:42.907Z,99759.73
2018-12-21T23:30:11.415Z,99762.73
2018-12-21T23:32:39.912Z,99760.77
2018-12-21T23:35:08.874Z,99756.48
2018-12-21T23:37:37.390Z,99759.47
2018-12-21T23:40:07.436Z,99757.86
2018-12-21T23:42:35.953Z,99757.17
2018-12-21T23:45:04.766Z,99752.50
2018-12-21T23:47:33.292Z,99751.19
2018-12-21T23:50:01.916Z,99757.86
2018-12-21T23:52:30.371Z,99752.91
2018-12-21T23:54:58.823Z,99750.75
2018-12-21T23:57:27.459Z,99756.31
2018-12-21T23:59:55.943Z,99750.03
